createdAt,value
2017-06-13T00:00:42.550Z,19.90
2017-06-13T00:03:13.744Z,19.80
2017-06-13T00:05:42.007Z,19.80
2017-06-13T00:08:10.293Z,19.80
2017-06-13T00:10:38.549Z,19.80
2017-06-13T00:13:06.790Z,19.60
2017-06-13T00:15:35.028Z,19.70
2017-06-13T00:18:03.285Z,19.50
2017-06-13T00:20:31.529Z,19.60
2017-06-13T00:23:00.558Z,19.50
2017-06-13T00:25:28.845Z,19.50
2017-06-13T00:27:57.151Z,19.40
2017-06-13T00:30:25.503Z,19.50
2017-06-13T00:32:53.738Z,19.50
2017-06-13T00:35:22.042Z,19.50
2017-06-13T00:37:50.374Z,19.40
2017-06-13T00:40:18.632Z,19.40
2017-06-13T00:42:46.974Z,19.50
2017-06-13T00:45:15.212Z,19.40
2017-06-13T00:47:44.240Z,19.40
2017-06-13T00:50:12.562Z,19.40
2017-06-13T00:52:40.797Z,19.50
2017-06-13T00:55:09.165Z,19.50
2017-06-13T00:57:37.437Z,19.40
2017-06-13T01:00:05.683Z,19.40
2017-06-13T01:02:34.783Z,19.30
2017-06-13T01:05:03.240Z,19.30
2017-06-13T01:07:31.470Z,19.30
2017-06-13T01:09:59.717Z,19.30
2017-06-13T01:12:28.017Z,19.30
2017-06-13T01:14:56.265Z,19.30
2017-06-13T01:17:24.615Z,19.20
2017-06-13T01:19:52.949Z,19.20
2017-06-13T01:22:21.187Z,19.20
2017-06-13T01:24:50.309Z,19.20
2017-06-13T01:27:18.643Z,19.10
2017-06-13T01:29:47.731Z,19.10
2017-06-13T01:32:15.976Z,19.10
2017-06-13T01:34:44.220Z,19.00
2017-06-13T01:37:12.484Z,19.00
2017-06-13T01:39:40.843Z,19.10
2017-06-13T01:42:09.161Z,19.00
2017-06-13T01:44:37.438Z,19.00
2017-06-13T01:47:05.680Z,19.00
2017-06-13T01:49:33.948Z,19.00
2017-06-13T01:52:02.192Z,19.00
2017-06-13T01:54:30.445Z,18.90
2017-06-13T01:56:58.710Z,18.90
2017-06-13T01:59:26.993Z,18.90
2017-06-13T02:01:55.372Z,18.90
2017-06-13T02:04:23.625Z,18.80
2017-06-13T02:06:51.929Z,18.70
2017-06-13T02:09:20.193Z,18.70
2017-06-13T02:11:48.454Z,18.70
2017-06-13T02:14:16.729Z,18.60
2017-06-13T02:16:44.989Z,18.50
2017-06-13T02:19:14.009Z,18.30
2017-06-13T02:21:42.282Z,18.30
2017-06-13T02:24:10.621Z,18.40
2017-06-13T02:26:39.696Z,18.10
2017-06-13T02:29:08.051Z,18.10
2017-06-13T02:31:36.311Z,18.10
2017-06-13T02:34:04.574Z,18.10
2017-06-13T02:36:32.814Z,18.00
2017-06-13T02:39:01.849Z,17.90
2017-06-13T02:41:30.084Z,17.90
2017-06-13T02:43:59.187Z,17.80
2017-06-13T02:46:27.413Z,17.80
2017-06-13T02:48:55.726Z,17.80
2017-06-13T02:51:23.961Z,17.80
2017-06-13T02:53:52.275Z,17.70
2017-06-13T02:56:20.488Z,17.60
2017-06-13T02:58:48.787Z,17.60
2017-06-13T03:01:17.029Z,17.70
2017-06-13T03:03:45.315Z,17.70
2017-06-13T03:06:13.559Z,17.70
2017-06-13T03:08:42.587Z,17.70
2017-06-13T03:11:10.872Z,17.70
2017-06-13T03:13:39.149Z,17.70
2017-06-13T03:16:07.417Z,17.70
2017-06-13T03:18:35.761Z,17.70
2017-06-13T03:21:03.973Z,17.70
2017-06-13T03:23:32.243Z,17.60
2017-06-13T03:26:00.547Z,17.60
2017-06-13T03:28:28.806Z,17.60
2017-06-13T03:30:57.096Z,17.60
2017-06-13T03:33:25.329Z,17.60
2017-06-13T03:35:53.644Z,17.50
2017-06-13T03:38:21.957Z,17.50
2017-06-13T03:40:50.347Z,17.40
2017-06-13T03:43:18.570Z,17.30
2017-06-13T03:45:46.840Z,17.40
2017-06-13T03:48:15.095Z,17.40
2017-06-13T03:50:43.454Z,17.40
2017-06-13T03:53:11.703Z,17.30
2017-06-13T03:55:39.952Z,17.30
2017-06-13T03:58:08.203Z,17.40
2017-06-13T04:00:36.545Z,17.50
2017-06-13T04:03:05.589Z,17.50
2017-06-13T04:05:33.961Z,17.50
2017-06-13T04:08:02.233Z,17.60
2017-06-13T04:10:30.469Z,17.50
2017-06-13T04:12:59.600Z,17.50
2017-06-13T04:15:28.030Z,17.50
2017-06-13T04:17:56.285Z,17.60
2017-06-13T04:20:24.629Z,17.60
2017-06-13T04:22:53.006Z,17.60
2017-06-13T04:25:21.457Z,17.60
2017-06-13T04:27:49.672Z,17.50
2017-06-13T04:30:18.065Z,17.60
2017-06-13T04:32:46.363Z,17.60
2017-06-13T04:35:14.612Z,17.60
2017-06-13T04:37:43.000Z,17.60
2017-06-13T04:40:11.237Z,17.70
2017-06-13T04:42:39.525Z,17.80
2017-06-13T04:45:07.765Z,17.80
2017-06-13T04:47:37.299Z,17.90
2017-06-13T04:50:05.552Z,17.80
2017-06-13T04:52:34.649Z,17.90
2017-06-13T04:55:02.920Z,17.90
2017-06-13T04:57:31.962Z,17.90
2017-06-13T05:00:00.186Z,17.90
2017-06-13T05:02:29.201Z,18.30
2017-06-13T05:04:57.633Z,18.30
2017-06-13T05:07:25.982Z,18.60
2017-06-13T05:09:54.344Z,19.00
2017-06-13T05:12:22.617Z,19.40
2017-06-13T05:14:50.974Z,19.90
2017-06-13T05:17:19.419Z,20.30
2017-06-13T05:19:47.628Z,20.70
2017-06-13T05:22:15.928Z,21.00
2017-06-13T05:24:44.173Z,21.00
2017-06-13T05:27:12.513Z,21.10
2017-06-13T05:29:40.776Z,21.30
2017-06-13T05:32:09.050Z,21.40
2017-06-13T05:34:37.305Z,21.40
2017-06-13T05:37:05.557Z,21.40
2017-06-13T05:39:33.802Z,21.40
2017-06-13T05:42:02.083Z,21.40
2017-06-13T05:44:31.088Z,21.50
2017-06-13T05:47:00.081Z,21.60
2017-06-13T05:49:29.093Z,21.70
2017-06-13T05:51:57.383Z,21.70
2017-06-13T05:54:25.671Z,21.80
2017-06-13T05:56:53.898Z,21.90
2017-06-13T05:59:22.907Z,22.10
2017-06-13T06:01:51.913Z,21.90
2017-06-13T06:04:20.160Z,21.90
2017-06-13T06:06:49.305Z,22.40
2017-06-13T06:09:18.418Z,22.40
2017-06-13T06:11:46.657Z,22.90
2017-06-13T06:14:14.915Z,23.50
2017-06-13T06:16:43.157Z,24.00
2017-06-13T06:19:11.492Z,24.80
2017-06-13T06:21:39.893Z,25.40
2017-06-13T06:24:08.137Z,25.90
2017-06-13T06:26:36.368Z,26.50
2017-06-13T06:29:05.397Z,27.30
2017-06-13T06:31:33.639Z,27.30
2017-06-13T06:34:01.889Z,27.80
2017-06-13T06:36:30.118Z,28.10
2017-06-13T06:38:58.377Z,28.60
2017-06-13T06:41:27.425Z,28.90
2017-06-13T06:43:55.786Z,28.80
2017-06-13T06:46:24.023Z,28.70
2017-06-13T06:48:53.108Z,27.50
2017-06-13T06:51:22.178Z,26.80
2017-06-13T06:53:50.475Z,26.70
2017-06-13T06:56:18.682Z,26.00
2017-06-13T06:58:47.025Z,25.50
2017-06-13T07:01:15.241Z,25.20
2017-06-13T07:03:43.543Z,25.10
2017-06-13T07:06:11.784Z,24.80
2017-06-13T07:08:40.035Z,24.40
2017-06-13T07:11:09.125Z,24.20
2017-06-13T07:13:37.445Z,24.20
2017-06-13T07:16:05.749Z,24.10
2017-06-13T07:18:34.015Z,24.00
2017-06-13T07:21:02.326Z,24.00
2017-06-13T07:23:30.648Z,24.20
2017-06-13T07:25:58.880Z,24.30
2017-06-13T07:28:27.898Z,24.70
2017-06-13T07:30:56.196Z,24.70
2017-06-13T07:33:24.464Z,25.10
2017-06-13T07:35:52.748Z,25.50
2017-06-13T07:38:21.082Z,26.00
2017-06-13T07:40:50.213Z,26.60
2017-06-13T07:43:18.537Z,26.60
2017-06-13T07:45:46.784Z,26.80
2017-06-13T07:48:15.054Z,27.00
2017-06-13T07:50:43.456Z,26.90
2017-06-13T07:53:12.241Z,26.50
2017-06-13T07:55:40.496Z,26.00
2017-06-13T07:58:08.760Z,25.60
2017-06-13T08:00:37.070Z,25.40
2017-06-13T08:03:05.413Z,25.30
2017-06-13T08:05:33.749Z,25.30
2017-06-13T08:08:02.069Z,25.50
2017-06-13T08:10:30.381Z,25.80
2017-06-13T08:12:58.614Z,26.30
2017-06-13T08:15:26.865Z,26.80
2017-06-13T08:17:55.101Z,27.50
2017-06-13T08:20:23.488Z,27.90
2017-06-13T08:22:51.711Z,28.30
2017-06-13T08:25:19.966Z,28.30
2017-06-13T08:27:48.279Z,28.20
2017-06-13T08:30:16.579Z,28.10
2017-06-13T08:32:44.814Z,27.80
2017-06-13T08:35:13.109Z,27.50
2017-06-13T08:37:41.384Z,27.20
2017-06-13T08:40:09.703Z,26.90
2017-06-13T08:42:37.948Z,26.70
2017-06-13T08:45:06.302Z,26.50
2017-06-13T08:47:34.551Z,26.20
2017-06-13T08:50:02.805Z,25.80
2017-06-13T08:52:31.809Z,25.60
2017-06-13T08:55:00.938Z,26.20
2017-06-13T08:57:29.170Z,26.20
2017-06-13T08:59:58.995Z,26.90
2017-06-13T09:02:27.329Z,26.80
2017-06-13T09:04:55.681Z,26.90
2017-06-13T09:07:24.007Z,26.90
2017-06-13T09:09:52.254Z,26.70
2017-06-13T09:12:20.605Z,26.50
2017-06-13T09:14:48.853Z,26.40
2017-06-13T09:17:17.977Z,25.90
2017-06-13T09:19:46.217Z,25.90
2017-06-13T09:22:14.456Z,25.70
2017-06-13T09:24:42.694Z,25.50
2017-06-13T09:27:10.949Z,25.50
2017-06-13T09:29:39.178Z,26.10
2017-06-13T09:32:07.428Z,26.80
2017-06-13T09:34:35.669Z,27.20
2017-06-13T09:37:04.801Z,27.20
2017-06-13T09:39:33.036Z,27.30
2017-06-13T09:42:02.061Z,27.10
2017-06-13T09:44:30.296Z,27.10
2017-06-13T09:46:59.437Z,26.30
2017-06-13T09:49:28.491Z,26.30
2017-06-13T09:51:57.761Z,26.10
2017-06-13T09:54:27.480Z,25.70
2017-06-13T09:56:57.087Z,25.50
2017-06-13T09:59:25.879Z,25.40
2017-06-13T10:01:54.764Z,25.50
2017-06-13T10:04:24.474Z,25.40
2017-06-13T10:06:53.218Z,25.30
2017-06-13T10:09:22.048Z,25.20
2017-06-13T10:11:51.249Z,25.10
2017-06-13T10:14:19.748Z,24.90
2017-06-13T10:16:48.926Z,24.90
2017-06-13T10:19:17.291Z,24.80
2017-06-13T10:21:45.633Z,24.90
2017-06-13T10:24:13.888Z,24.90
2017-06-13T10:26:42.142Z,24.90
2017-06-13T10:29:11.141Z,25.50
2017-06-13T10:31:40.216Z,26.70
2017-06-13T10:34:08.455Z,26.70
2017-06-13T10:36:36.743Z,28.40
2017-06-13T10:39:04.981Z,30.10
2017-06-13T10:41:33.236Z,31.80
2017-06-13T10:44:02.240Z,33.60
2017-06-13T10:46:30.891Z,33.60
2017-06-13T10:48:59.133Z,33.60
2017-06-13T10:51:27.390Z,32.30
2017-06-13T10:53:55.685Z,31.30
2017-06-13T10:56:23.960Z,30.70
2017-06-13T10:58:52.277Z,30.20
2017-06-13T11:01:21.290Z,29.30
2017-06-13T11:03:50.551Z,28.70
2017-06-13T11:06:18.788Z,28.60
2017-06-13T11:08:47.046Z,28.30
2017-06-13T11:11:15.297Z,27.70
2017-06-13T11:13:44.378Z,27.60
2017-06-13T11:16:12.616Z,27.50
2017-06-13T11:18:40.928Z,28.00
2017-06-13T11:21:09.247Z,28.20
2017-06-13T11:23:37.516Z,28.30
2017-06-13T11:26:05.750Z,28.40
2017-06-13T11:28:34.082Z,28.30
2017-06-13T11:31:02.313Z,28.10
2017-06-13T11:33:31.473Z,27.60
2017-06-13T11:35:59.732Z,27.60
2017-06-13T11:38:28.057Z,27.40
2017-06-13T11:40:56.338Z,27.20
2017-06-13T11:43:24.721Z,27.10
2017-06-13T11:45:53.089Z,27.00
2017-06-13T11:48:21.428Z,26.90
2017-06-13T11:50:49.660Z,27.50
2017-06-13T11:53:18.678Z,29.10
2017-06-13T11:55:47.030Z,29.00
2017-06-13T11:58:15.272Z,29.20
2017-06-13T12:00:43.634Z,29.30
2017-06-13T12:03:11.883Z,29.10
2017-06-13T12:05:40.121Z,29.10
2017-06-13T12:08:08.448Z,28.80
2017-06-13T12:10:36.745Z,28.70
2017-06-13T12:13:04.993Z,28.70
2017-06-13T12:15:33.276Z,28.70
2017-06-13T12:18:01.614Z,28.60
2017-06-13T12:20:30.660Z,28.50
2017-06-13T12:22:58.937Z,28.50
2017-06-13T12:25:27.235Z,28.50
2017-06-13T12:27:56.794Z,28.50
2017-06-13T12:30:25.245Z,28.60
2017-06-13T12:32:54.337Z,28.50
2017-06-13T12:35:23.010Z,28.40
2017-06-13T12:37:52.676Z,28.40
2017-06-13T12:40:21.881Z,28.40
2017-06-13T12:42:51.312Z,28.20
2017-06-13T12:45:19.751Z,28.20
2017-06-13T12:47:48.052Z,28.00
2017-06-13T12:50:16.392Z,27.70
2017-06-13T12:52:44.638Z,27.60
2017-06-13T12:55:13.646Z,27.40
2017-06-13T12:57:41.910Z,27.40
2017-06-13T13:00:10.924Z,27.10
2017-06-13T13:02:39.218Z,27.10
2017-06-13T13:05:07.477Z,27.10
2017-06-13T13:07:35.872Z,27.00
2017-06-13T13:10:04.108Z,27.00
2017-06-13T13:12:33.141Z,27.00
2017-06-13T13:15:02.381Z,26.90
2017-06-13T13:17:30.960Z,26.80
2017-06-13T13:19:59.455Z,26.80
2017-06-13T13:22:28.546Z,26.60
2017-06-13T13:24:58.003Z,26.70
2017-06-13T13:27:26.230Z,26.70
2017-06-13T13:29:55.362Z,26.50
2017-06-13T13:32:23.644Z,26.50
2017-06-13T13:34:51.961Z,26.50
2017-06-13T13:37:20.189Z,26.50
2017-06-13T13:39:48.451Z,26.60
2017-06-13T13:42:16.805Z,26.60
2017-06-13T13:44:46.037Z,26.30
2017-06-13T13:47:14.365Z,26.30
2017-06-13T13:49:42.604Z,26.30
2017-06-13T13:52:10.882Z,26.00
2017-06-13T13:54:39.137Z,25.70
2017-06-13T13:57:07.408Z,25.60
2017-06-13T13:59:35.665Z,25.50
2017-06-13T14:02:03.917Z,25.50
2017-06-13T14:04:32.298Z,25.40
2017-06-13T14:07:00.579Z,25.40
2017-06-13T14:09:29.749Z,25.10
2017-06-13T14:11:57.981Z,25.10
2017-06-13T14:14:26.248Z,25.00
2017-06-13T14:16:54.562Z,24.80
2017-06-13T14:19:22.935Z,24.80
2017-06-13T14:21:51.213Z,24.80
2017-06-13T14:24:19.553Z,24.80
2017-06-13T14:26:47.877Z,24.90
2017-06-13T14:29:16.116Z,24.90
2017-06-13T14:31:44.357Z,24.90
2017-06-13T14:34:13.389Z,25.00
2017-06-13T14:36:41.655Z,24.90
2017-06-13T14:39:09.904Z,24.90
2017-06-13T14:41:38.930Z,24.90
2017-06-13T14:44:07.219Z,24.80
2017-06-13T14:46:35.498Z,25.00
2017-06-13T14:49:03.825Z,25.00
2017-06-13T14:51:32.865Z,25.00
2017-06-13T14:54:01.235Z,25.00
2017-06-13T14:56:29.740Z,24.90
2017-06-13T14:58:58.002Z,24.90
2017-06-13T15:01:26.277Z,24.90
2017-06-13T15:03:54.519Z,24.90
2017-06-13T15:06:23.645Z,24.90
2017-06-13T15:08:51.882Z,24.90
2017-06-13T15:11:21.005Z,24.80
2017-06-13T15:13:49.289Z,24.80
2017-06-13T15:16:17.568Z,24.90
2017-06-13T15:18:45.823Z,24.70
2017-06-13T15:21:14.077Z,24.70
2017-06-13T15:23:42.389Z,24.70
2017-06-13T15:26:10.661Z,24.60
2017-06-13T15:28:38.897Z,24.60
2017-06-13T15:31:07.313Z,24.50
2017-06-13T15:33:35.663Z,24.50
2017-06-13T15:36:03.907Z,24.30
2017-06-13T15:38:32.159Z,24.20
2017-06-13T15:41:00.395Z,24.00
2017-06-13T15:43:28.651Z,24.00
2017-06-13T15:45:57.662Z,23.90
2017-06-13T15:48:25.957Z,23.90
2017-06-13T15:50:54.256Z,24.00
2017-06-13T15:53:22.564Z,24.00
2017-06-13T15:55:50.893Z,23.80
2017-06-13T15:58:19.151Z,23.90
2017-06-13T16:00:47.429Z,23.80
2017-06-13T16:03:15.674Z,23.90
2017-06-13T16:05:45.066Z,23.90
2017-06-13T16:08:13.305Z,23.90
2017-06-13T16:10:41.608Z,23.90
2017-06-13T16:13:09.869Z,23.90
2017-06-13T16:15:38.150Z,23.80
2017-06-13T16:18:06.399Z,23.80
2017-06-13T16:20:34.659Z,23.70
2017-06-13T16:23:02.913Z,23.80
2017-06-13T16:25:31.267Z,23.80
2017-06-13T16:27:59.627Z,23.80
2017-06-13T16:30:27.897Z,23.80
2017-06-13T16:32:56.149Z,23.80
2017-06-13T16:35:24.479Z,23.80
2017-06-13T16:37:52.810Z,23.80
2017-06-13T16:40:21.057Z,23.70
2017-06-13T16:42:49.445Z,23.70
2017-06-13T16:45:17.764Z,23.70
2017-06-13T16:47:46.022Z,23.70
2017-06-13T16:50:14.451Z,23.60
2017-06-13T16:52:42.699Z,23.60
2017-06-13T16:55:10.953Z,23.60
2017-06-13T16:57:39.201Z,23.60
2017-06-13T17:00:07.538Z,23.70
2017-06-13T17:02:35.774Z,23.60
2017-06-13T17:05:04.025Z,23.60
2017-06-13T17:07:32.286Z,23.60
2017-06-13T17:10:01.414Z,23.40
2017-06-13T17:12:29.745Z,23.40
2017-06-13T17:14:58.112Z,23.30
2017-06-13T17:17:26.553Z,23.30
2017-06-13T17:19:54.789Z,23.30
2017-06-13T17:22:23.817Z,23.40
2017-06-13T17:24:52.067Z,23.30
2017-06-13T17:27:20.330Z,23.30
2017-06-13T17:29:48.597Z,23.30
2017-06-13T17:32:17.617Z,23.20
2017-06-13T17:34:45.865Z,23.20
2017-06-13T17:37:14.869Z,23.20
2017-06-13T17:39:43.133Z,23.20
2017-06-13T17:42:12.142Z,23.00
2017-06-13T17:44:40.463Z,23.00
2017-06-13T17:47:08.706Z,23.10
2017-06-13T17:49:36.938Z,23.00
2017-06-13T17:52:05.222Z,23.00
2017-06-13T17:54:34.226Z,22.90
2017-06-13T17:57:03.237Z,23.00
2017-06-13T17:59:31.537Z,22.90
2017-06-13T18:01:59.771Z,23.00
2017-06-13T18:04:28.045Z,22.90
2017-06-13T18:06:56.399Z,22.90
2017-06-13T18:09:24.646Z,22.90
2017-06-13T18:11:53.036Z,22.90
2017-06-13T18:14:21.271Z,22.80
2017-06-13T18:16:49.613Z,22.80
2017-06-13T18:19:17.848Z,22.80
2017-06-13T18:21:46.175Z,22.80
2017-06-13T18:24:14.416Z,22.80
2017-06-13T18:26:42.649Z,22.80
2017-06-13T18:29:10.900Z,22.80
2017-06-13T18:31:39.159Z,22.80
2017-06-13T18:34:07.404Z,22.80
2017-06-13T18:36:35.721Z,22.80
2017-06-13T18:39:03.976Z,22.80
2017-06-13T18:41:32.248Z,22.80
2017-06-13T18:44:00.512Z,22.80
2017-06-13T18:46:28.773Z,22.70
2017-06-13T18:48:57.046Z,22.70
2017-06-13T18:51:25.375Z,22.70
2017-06-13T18:53:53.634Z,22.60
2017-06-13T18:56:21.870Z,22.50
2017-06-13T18:58:50.113Z,22.60
2017-06-13T19:01:19.170Z,22.40
2017-06-13T19:03:47.518Z,22.40
2017-06-13T19:06:15.848Z,22.40
2017-06-13T19:08:44.880Z,22.40
2017-06-13T19:11:14.231Z,22.40
2017-06-13T19:13:43.338Z,22.30
2017-06-13T19:16:12.366Z,22.30
2017-06-13T19:18:40.730Z,22.20
2017-06-13T19:21:09.086Z,22.20
2017-06-13T19:23:37.331Z,22.20
2017-06-13T19:26:05.573Z,22.20
2017-06-13T19:28:33.810Z,22.30
2017-06-13T19:31:02.950Z,22.20
2017-06-13T19:33:31.257Z,22.20
2017-06-13T19:35:59.655Z,22.20
2017-06-13T19:38:27.913Z,22.20
2017-06-13T19:40:56.153Z,22.20
2017-06-13T19:43:24.538Z,22.20
2017-06-13T19:45:52.806Z,22.20
2017-06-13T19:48:21.045Z,22.20
2017-06-13T19:50:50.097Z,22.10
2017-06-13T19:53:18.440Z,22.10
2017-06-13T19:55:46.681Z,22.10
2017-06-13T19:58:14.915Z,22.10
2017-06-13T20:00:43.172Z,22.10
2017-06-13T20:03:11.507Z,22.10
2017-06-13T20:05:39.740Z,22.10
2017-06-13T20:08:08.030Z,22.10
2017-06-13T20:10:36.296Z,22.00
2017-06-13T20:13:04.537Z,22.00
2017-06-13T20:15:32.814Z,22.00
2017-06-13T20:18:01.233Z,21.90
2017-06-13T20:20:29.530Z,21.90
2017-06-13T20:23:03.511Z,21.90
2017-06-13T20:25:31.754Z,21.80
2017-06-13T20:28:14.922Z,21.80
2017-06-13T20:30:43.157Z,21.80
2017-06-13T20:33:11.412Z,21.70
2017-06-13T20:35:40.446Z,21.60
2017-06-13T20:38:08.703Z,21.60
2017-06-13T20:40:36.985Z,21.60
2017-06-13T20:43:05.375Z,21.50
2017-06-13T20:45:33.692Z,21.40
2017-06-13T20:48:02.760Z,21.40
2017-06-13T20:50:31.305Z,21.30
2017-06-13T20:52:59.538Z,21.40
2017-06-13T20:55:27.939Z,21.30
2017-06-13T20:57:56.357Z,21.20
2017-06-13T21:00:24.593Z,21.00
2017-06-13T21:02:53.591Z,20.90
2017-06-13T21:05:21.886Z,20.90
2017-06-13T21:07:50.358Z,20.90
2017-06-13T21:10:18.664Z,20.90
2017-06-13T21:12:47.261Z,20.80
2017-06-13T21:15:15.480Z,20.70
2017-06-13T21:17:43.817Z,20.70
2017-06-13T21:20:12.089Z,20.60
2017-06-13T21:22:40.321Z,20.60
2017-06-13T21:25:08.726Z,20.60
2017-06-13T21:27:36.993Z,20.60
2017-06-13T21:30:05.246Z,20.60
2017-06-13T21:32:33.482Z,20.40
2017-06-13T21:35:01.797Z,20.30
2017-06-13T21:37:30.139Z,20.30
2017-06-13T21:39:58.353Z,20.20
2017-06-13T21:42:26.695Z,20.20
2017-06-13T21:44:55.012Z,20.10
2017-06-13T21:47:23.257Z,20.00
2017-06-13T21:49:52.294Z,19.80
2017-06-13T21:52:20.541Z,19.80
2017-06-13T21:54:48.785Z,19.80
2017-06-13T21:57:17.065Z,19.80
2017-06-13T21:59:45.302Z,19.80
2017-06-13T22:02:13.608Z,19.60
2017-06-13T22:04:41.843Z,19.60
2017-06-13T22:07:10.119Z,19.50
2017-06-13T22:09:38.384Z,19.50
2017-06-13T22:12:06.769Z,19.50
2017-06-13T22:14:35.026Z,19.40
2017-06-13T22:17:03.247Z,19.40
2017-06-13T22:19:31.600Z,19.30
2017-06-13T22:21:59.841Z,19.30
2017-06-13T22:24:28.842Z,19.30
2017-06-13T22:26:57.168Z,19.20
2017-06-13T22:29:25.520Z,19.20
2017-06-13T22:31:53.791Z,19.20
2017-06-13T22:34:22.168Z,19.20
2017-06-13T22:36:50.409Z,19.20
2017-06-13T22:39:19.498Z,19.30
2017-06-13T22:41:47.765Z,19.20
2017-06-13T22:44:16.105Z,19.30
2017-06-13T22:46:44.356Z,19.20
2017-06-13T22:49:12.645Z,19.20
2017-06-13T22:51:40.964Z,19.20
2017-06-13T22:54:09.340Z,19.10
2017-06-13T22:56:38.381Z,19.10
2017-06-13T22:59:06.673Z,19.10
2017-06-13T23:01:34.901Z,19.00
2017-06-13T23:04:03.997Z,19.10
2017-06-13T23:06:33.001Z,19.10
2017-06-13T23:09:01.353Z,19.10
2017-06-13T23:11:29.749Z,19.10
2017-06-13T23:13:58.754Z,19.10
2017-06-13T23:16:27.129Z,19.10
2017-06-13T23:18:55.403Z,19.10
2017-06-13T23:21:23.868Z,19.10
2017-06-13T23:23:52.085Z,18.90
2017-06-13T23:26:20.464Z,18.90
2017-06-13T23:28:48.709Z,18.90
2017-06-13T23:31:16.955Z,18.80
2017-06-13T23:33:45.242Z,18.80
2017-06-13T23:36:13.480Z,18.90
2017-06-13T23:38:41.717Z,18.90
2017-06-13T23:41:10.074Z,18.80
2017-06-13T23:43:39.134Z,18.90
2017-06-13T23:46:07.407Z,18.90
2017-06-13T23:48:35.673Z,18.90
2017-06-13T23:51:03.956Z,18.80
2017-06-13T23:53:32.232Z,18.80
2017-06-13T23:56:00.510Z,18.80
2017-06-13T23:58:28.761Z,18.80
